createdAt,value
2022-09-05T00:00:24.444Z,67.88
2022-09-05T00:01:27.616Z,68.08
2022-09-05T00:02:24.364Z,68.08
2022-09-05T00:03:24.518Z,67.88
2022-09-05T00:04:25.767Z,67.48
2022-09-05T00:05:24.388Z,67.48
2022-09-05T00:06:24.097Z,67.68
2022-09-05T00:07:37.399Z,67.78
2022-09-05T00:08:25.111Z,68.08
2022-09-05T00:09:24.219Z,68.32
2022-09-05T00:10:23.997Z,68.32
2022-09-05T00:11:42.434Z,68.41
2022-09-05T00:12:25.051Z,68.12
2022-09-05T00:13:24.162Z,68.32
2022-09-05T00:14:34.196Z,67.82
2022-09-05T00:15:24.867Z,67.71
2022-09-05T00:16:23.995Z,67.82
2022-09-05T00:17:27.855Z,67.82
2022-09-05T00:23:31.991Z,67.82
2022-09-05T00:24:21.281Z,68.41
2022-09-05T00:24:22.268Z,68.12
2022-09-05T00:24:22.579Z,68.12
2022-09-05T00:24:25.191Z,68.12
2022-09-05T00:24:35.777Z,68.41
2022-09-05T00:24:42.307Z,68.12
2022-09-05T00:25:32.887Z,68.21
2022-09-05T00:26:25.143Z,67.71
2022-09-05T00:27:23.939Z,67.51
2022-09-05T00:28:26.797Z,67.61
2022-09-05T00:29:34.774Z,67.21
2022-09-05T00:31:51.893Z,67.71
2022-09-05T00:31:53.659Z,67.71
2022-09-05T00:32:24.780Z,67.51
2022-09-05T00:33:23.675Z,67.61
2022-09-05T00:34:23.778Z,67.31
2022-09-05T00:35:26.005Z,67.41
2022-09-05T00:36:23.644Z,67.21
2022-09-05T00:37:23.678Z,67.61
2022-09-05T00:38:28.498Z,68.02
2022-09-05T00:39:24.622Z,68.12
2022-09-05T00:40:23.754Z,67.61
2022-09-05T00:41:23.605Z,67.82
2022-09-05T00:42:23.594Z,67.41
2022-09-05T00:43:23.717Z,67.31
2022-09-05T00:44:23.487Z,67.31
2022-09-05T00:45:23.538Z,67.31
2022-09-05T00:46:23.624Z,67.31
2022-09-05T00:47:23.635Z,67.61
2022-09-05T00:48:23.516Z,67.51
2022-09-05T00:49:23.554Z,67.61
2022-09-05T00:50:23.652Z,67.71
2022-09-05T00:51:29.222Z,68.21
2022-09-05T00:52:24.405Z,68.02
2022-09-05T00:53:23.441Z,68.02
2022-09-05T00:54:24.822Z,68.72
2022-09-05T00:55:24.567Z,68.02
2022-09-05T00:56:23.414Z,67.82
2022-09-05T00:57:23.393Z,68.32
2022-09-05T00:58:24.001Z,68.12
2022-09-05T00:59:23.294Z,68.05
2022-09-05T01:00:23.833Z,69.25
2022-09-05T01:01:23.356Z,68.75
2022-09-05T01:02:23.416Z,69.65
2022-09-05T01:03:23.413Z,69.35
2022-09-05T01:04:23.402Z,69.06
2022-09-05T01:05:23.459Z,68.55
2022-09-05T01:06:23.252Z,69.06
2022-09-05T01:07:23.260Z,68.95
2022-09-05T01:08:23.483Z,68.85
2022-09-05T01:09:23.426Z,68.85
2022-09-05T01:10:23.687Z,68.65
2022-09-05T01:11:23.157Z,68.95
2022-09-05T01:12:23.084Z,69.15
2022-09-05T01:13:23.152Z,69.25
2022-09-05T01:14:23.207Z,69.15
2022-09-05T01:15:23.179Z,69.15
2022-09-05T01:16:23.312Z,68.55
2022-09-05T01:17:23.342Z,69.15
2022-09-05T01:18:23.409Z,68.35
2022-09-05T01:19:23.240Z,68.65
2022-09-05T01:20:23.155Z,68.95
2022-09-05T01:21:23.476Z,68.75
2022-09-05T01:22:23.478Z,68.55
2022-09-05T01:23:23.088Z,68.65
2022-09-05T01:24:27.738Z,69.29
2022-09-05T01:25:24.030Z,69.69
2022-09-05T01:26:22.929Z,69.79
2022-09-05T01:27:22.971Z,69.49
2022-09-05T01:29:13.020Z,69.89
2022-09-05T01:29:24.278Z,70.19
2022-09-05T01:30:23.012Z,69.69
2022-09-05T01:31:23.964Z,70.29
2022-09-05T01:32:22.929Z,70.29
2022-09-05T01:33:23.283Z,70.29
2022-09-05T01:34:31.322Z,70.29
2022-09-05T01:35:24.014Z,70.79
2022-09-05T01:36:22.941Z,71.00
2022-09-05T01:37:24.945Z,70.79
2022-09-05T01:38:24.180Z,69.69
2022-09-05T01:40:11.539Z,70.73
2022-09-05T01:40:23.844Z,71.03
2022-09-05T01:41:22.842Z,70.23
2022-09-05T01:42:22.873Z,70.93
2022-09-05T01:43:22.879Z,70.83
2022-09-05T01:44:22.825Z,70.32
2022-09-05T01:45:25.067Z,69.82
2022-09-05T01:46:23.924Z,71.03
2022-09-05T01:47:29.355Z,70.93
2022-09-05T01:48:23.713Z,70.93
2022-09-05T01:49:22.767Z,69.82
2022-09-05T01:50:22.657Z,70.73
2022-09-05T01:51:29.313Z,71.43
2022-09-05T01:52:23.773Z,71.63
2022-09-05T01:53:22.589Z,71.23
2022-09-05T01:54:26.058Z,71.83
2022-09-05T01:55:23.703Z,71.97
2022-09-05T01:56:22.568Z,71.97
2022-09-05T01:57:22.716Z,70.86
2022-09-05T01:58:22.674Z,70.76
2022-09-05T01:59:22.639Z,71.26
2022-09-05T02:00:22.697Z,70.46
2022-09-05T02:01:27.999Z,70.56
2022-09-05T02:02:23.692Z,71.06
2022-09-05T02:03:22.703Z,71.26
2022-09-05T02:04:22.533Z,71.36
2022-09-05T02:05:47.426Z,71.97
2022-09-05T02:06:23.546Z,71.67
2022-09-05T02:07:30.831Z,72.27
2022-09-05T02:08:23.462Z,72.47
2022-09-05T02:09:22.465Z,72.27
2022-09-05T02:10:22.486Z,72.57
2022-09-05T02:11:35.479Z,72.37
2022-09-05T02:12:23.357Z,72.17
2022-09-05T02:13:22.466Z,72.41
2022-09-05T02:14:33.595Z,72.61
2022-09-05T02:15:23.375Z,72.20
2022-09-05T02:16:22.362Z,72.71
2022-09-05T02:17:27.402Z,73.01
2022-09-05T02:18:23.473Z,72.20
2022-09-05T02:19:22.252Z,72.41
2022-09-05T02:20:23.810Z,73.01
2022-09-05T02:21:22.535Z,72.71
2022-09-05T02:22:22.315Z,72.31
2022-09-05T02:23:32.660Z,71.30
2022-09-05T02:24:23.640Z,70.59
2022-09-05T02:26:01.059Z,71.30
2022-09-05T02:26:23.235Z,71.30
2022-09-05T02:27:31.829Z,71.40
2022-09-05T02:28:23.206Z,72.41
2022-09-05T02:29:28.944Z,72.91
2022-09-05T02:30:23.218Z,72.81
2022-09-05T02:31:22.188Z,72.91
2022-09-05T02:32:22.190Z,72.20
2022-09-05T02:33:22.088Z,73.32
2022-09-05T02:34:22.146Z,73.35
2022-09-05T02:35:22.349Z,73.35
2022-09-05T02:36:22.129Z,72.74
2022-09-05T02:38:15.635Z,73.75
2022-09-05T02:45:00.222Z,73.45
2022-09-05T02:45:02.776Z,73.65
2022-09-05T02:45:06.404Z,73.95
2022-09-05T02:45:12.203Z,73.05
2022-09-05T02:45:13.703Z,73.75
2022-09-05T02:45:20.340Z,72.74
2022-09-05T02:45:21.585Z,72.14
2022-09-05T02:45:26.667Z,72.44
2022-09-05T02:46:22.024Z,72.44
2022-09-05T02:47:22.026Z,72.54
2022-09-05T02:48:22.360Z,73.45
2022-09-05T02:51:12.783Z,73.05
2022-09-05T02:53:52.056Z,72.64
2022-09-05T02:57:25.826Z,72.44
2022-09-05T02:57:29.067Z,72.74
2022-09-05T02:57:37.439Z,74.05
2022-09-05T02:57:41.586Z,72.44
2022-09-05T02:57:42.485Z,73.05
2022-09-05T02:57:43.478Z,73.55
2022-09-05T02:58:05.649Z,73.35
2022-09-05T02:58:22.870Z,73.88
2022-09-05T02:59:35.882Z,73.58
2022-09-05T03:00:22.952Z,74.29
2022-09-05T03:01:22.030Z,74.19
2022-09-05T03:02:26.425Z,73.99
2022-09-05T03:03:22.881Z,73.68
2022-09-05T03:04:21.856Z,73.79
2022-09-05T03:05:21.778Z,74.19
2022-09-05T03:06:34.188Z,73.58
2022-09-05T03:07:22.971Z,74.08
2022-09-05T03:08:21.781Z,74.49
2022-09-05T03:09:21.840Z,75.10
2022-09-05T03:10:26.805Z,74.59
2022-09-05T03:11:22.711Z,75.20
2022-09-05T03:12:28.962Z,74.90
2022-09-05T03:13:22.976Z,75.20
2022-09-05T03:14:21.785Z,74.79
2022-09-05T03:15:22.843Z,74.69
2022-09-05T03:16:21.649Z,75.30
2022-09-05T03:17:21.520Z,75.40
2022-09-05T03:18:21.724Z,75.74
2022-09-05T03:19:21.630Z,75.03
2022-09-05T03:20:21.625Z,74.93
2022-09-05T03:21:21.528Z,74.22
2022-09-05T03:22:22.444Z,73.52
2022-09-05T03:23:22.027Z,74.63
2022-09-05T03:24:21.813Z,73.82
2022-09-05T03:25:21.667Z,74.02
2022-09-05T03:26:21.442Z,75.03
2022-09-05T03:27:23.662Z,74.93
2022-09-05T03:28:22.476Z,75.23
2022-09-05T03:29:21.407Z,75.23
2022-09-05T03:30:21.446Z,75.63
2022-09-05T03:31:22.398Z,75.34
2022-09-05T03:32:21.465Z,75.54
2022-09-05T03:33:21.562Z,75.74
2022-09-05T03:34:21.535Z,75.34
2022-09-05T03:35:21.491Z,75.13
2022-09-05T03:36:21.506Z,74.63
2022-09-05T03:37:21.502Z,74.52
2022-09-05T03:38:21.478Z,75.54
2022-09-05T03:39:21.254Z,74.32
2022-09-05T03:40:21.322Z,74.83
2022-09-05T03:41:21.277Z,75.34
2022-09-05T03:42:22.438Z,74.22
2022-09-05T03:43:21.381Z,74.83
2022-09-05T03:44:21.271Z,74.73
2022-09-05T03:45:37.402Z,74.52
2022-09-05T03:46:22.210Z,75.54
2022-09-05T03:47:21.177Z,75.74
2022-09-05T03:48:27.689Z,75.34
2022-09-05T03:50:57.714Z,75.74
2022-09-05T03:53:57.103Z,76.34
2022-09-05T03:55:18.627Z,76.64
2022-09-05T03:57:07.965Z,76.64
2022-09-05T03:57:10.482Z,77.08
2022-09-05T03:57:22.569Z,76.98
2022-09-05T03:57:26.662Z,75.98
2022-09-05T03:57:28.306Z,76.68
2022-09-05T03:57:42.105Z,76.28
2022-09-05T03:58:28.112Z,76.48
2022-09-05T03:59:21.994Z,76.48
2022-09-05T04:00:21.128Z,76.78
2022-09-05T04:02:29.082Z,76.28
2022-09-05T04:06:44.191Z,76.78
2022-09-05T04:08:06.669Z,76.58
2022-09-05T04:08:06.858Z,76.58
2022-09-05T04:08:15.792Z,76.07
2022-09-05T04:08:18.260Z,77.19
2022-09-05T04:08:24.460Z,76.78
2022-09-05T04:08:34.303Z,77.49
2022-09-05T04:09:37.249Z,76.98
2022-09-05T04:10:22.040Z,77.39
2022-09-05T04:11:20.825Z,77.42
2022-09-05T04:12:20.765Z,76.92
2022-09-05T04:13:20.886Z,77.02
2022-09-05T04:14:20.823Z,76.38
2022-09-05T04:15:20.847Z,76.38
2022-09-05T04:16:20.763Z,76.18
2022-09-05T04:17:20.735Z,76.28
2022-09-05T04:18:32.862Z,76.48
2022-09-05T04:19:21.710Z,75.67
2022-09-05T04:20:20.642Z,76.38
2022-09-05T04:21:20.643Z,76.78
2022-09-05T04:22:20.713Z,76.88
2022-09-05T04:23:20.870Z,76.82
2022-09-05T04:24:20.904Z,77.12
2022-09-05T04:25:20.827Z,76.51
2022-09-05T04:26:20.626Z,76.92
2022-09-05T04:27:20.579Z,76.31
2022-09-05T04:28:21.668Z,76.11
2022-09-05T04:29:20.716Z,77.02
2022-09-05T04:30:39.818Z,77.42
2022-09-05T04:31:21.625Z,77.73
2022-09-05T04:32:20.758Z,77.62
2022-09-05T04:33:22.277Z,77.22
2022-09-05T04:34:21.551Z,76.92
2022-09-05T04:35:20.622Z,76.62
2022-09-05T04:36:20.618Z,77.02
2022-09-05T04:37:20.811Z,77.02
2022-09-05T04:38:20.865Z,77.12
2022-09-05T04:39:20.398Z,77.22
2022-09-05T04:40:20.788Z,77.32
2022-09-05T04:41:37.780Z,76.62
2022-09-05T04:42:21.535Z,76.51
2022-09-05T04:43:20.460Z,76.51
2022-09-05T04:44:20.490Z,76.42
2022-09-05T04:45:24.307Z,76.21
2022-09-05T04:46:21.076Z,76.01
2022-09-05T04:47:20.384Z,75.91
2022-09-05T04:48:21.446Z,76.01
2022-09-05T04:49:24.352Z,76.72
2022-09-05T04:50:23.641Z,76.82
2022-09-05T04:51:20.590Z,76.21
2022-09-05T04:52:30.854Z,76.42
2022-09-05T04:53:21.403Z,76.31
2022-09-05T04:54:20.617Z,76.31
2022-09-05T04:55:20.736Z,76.21
2022-09-05T04:56:20.780Z,76.21
2022-09-05T04:57:20.292Z,76.21
2022-09-05T04:58:20.355Z,76.72
2022-09-05T05:01:04.524Z,77.62
2022-09-05T05:06:01.154Z,77.12
2022-09-05T05:06:02.543Z,76.62
2022-09-05T05:06:05.977Z,76.82
2022-09-05T05:06:09.238Z,78.47
2022-09-05T05:06:15.484Z,78.37
2022-09-05T05:06:18.912Z,77.73
2022-09-05T05:06:38.244Z,78.17
2022-09-05T05:07:21.343Z,78.67
2022-09-05T05:08:28.784Z,78.37
2022-09-05T05:09:21.549Z,77.76
2022-09-05T05:11:22.918Z,78.47
2022-09-05T05:17:56.821Z,77.76
2022-09-05T05:17:57.239Z,77.76
2022-09-05T05:17:59.703Z,78.17
2022-09-05T05:18:03.037Z,77.66
2022-09-05T05:18:13.756Z,78.57
2022-09-05T05:18:14.532Z,78.97
2022-09-05T05:18:15.974Z,78.47
2022-09-05T05:18:36.576Z,79.17
2022-09-05T05:19:22.127Z,78.97
2022-09-05T05:20:42.318Z,78.17
2022-09-05T05:21:21.145Z,78.27
2022-09-05T05:22:19.902Z,78.77
2022-09-05T05:23:19.980Z,77.86
2022-09-05T05:24:22.001Z,78.57
2022-09-05T05:25:20.058Z,78.37
2022-09-05T05:26:19.837Z,78.37
2022-09-05T05:27:19.770Z,78.97
2022-09-05T05:28:24.631Z,78.37
2022-09-05T05:29:20.834Z,78.17
2022-09-05T05:30:19.976Z,78.37
2022-09-05T05:31:19.980Z,78.27
2022-09-05T05:32:28.171Z,77.97
2022-09-05T05:33:20.763Z,78.47
2022-09-05T05:34:24.644Z,78.06
2022-09-05T05:35:20.819Z,78.06
2022-09-05T05:36:19.818Z,78.06
2022-09-05T05:37:19.676Z,78.17
2022-09-05T05:38:19.739Z,78.37
2022-09-05T05:39:19.818Z,79.38
2022-09-05T05:40:19.717Z,79.68
2022-09-05T05:41:19.657Z,79.58
2022-09-05T05:42:20.952Z,79.99
2022-09-05T05:43:19.600Z,79.99
2022-09-05T05:44:19.564Z,79.88
2022-09-05T05:45:19.676Z,79.99
2022-09-05T05:46:20.665Z,79.88
2022-09-05T05:47:31.209Z,79.68
2022-09-05T05:48:21.891Z,79.38
2022-09-05T05:49:19.687Z,79.28
2022-09-05T05:50:19.962Z,79.08
2022-09-05T05:51:19.679Z,79.08
2022-09-05T05:52:20.485Z,79.28
2022-09-05T05:53:29.161Z,79.58
2022-09-05T05:54:20.528Z,79.68
2022-09-05T05:55:52.297Z,79.68
2022-09-05T05:56:20.750Z,79.68
2022-09-05T05:57:19.630Z,79.68
2022-09-05T05:58:19.486Z,79.79
2022-09-05T05:59:24.054Z,79.88
2022-09-05T06:00:27.556Z,80.19
2022-09-05T06:01:30.266Z,79.99
2022-09-05T06:02:20.340Z,80.08
2022-09-05T06:03:26.250Z,80.19
2022-09-05T06:04:20.401Z,80.08
2022-09-05T06:05:19.265Z,80.49
2022-09-05T06:06:19.501Z,80.08
2022-09-05T06:07:19.405Z,80.39
2022-09-05T06:11:09.414Z,80.08
2022-09-05T06:14:48.846Z,79.99
2022-09-05T06:14:52.022Z,79.99
2022-09-05T06:14:55.982Z,80.29
2022-09-05T06:14:56.830Z,79.99
2022-09-05T06:14:57.128Z,80.19
2022-09-05T06:15:09.141Z,80.08
2022-09-05T06:15:23.112Z,79.99
2022-09-05T06:16:19.298Z,80.19
2022-09-05T06:17:19.872Z,79.99
2022-09-05T06:18:20.168Z,79.99
2022-09-05T06:19:19.170Z,79.79
2022-09-05T06:22:04.876Z,79.54
2022-09-05T06:22:10.593Z,79.44
2022-09-05T06:22:21.414Z,79.24
2022-09-05T06:23:38.773Z,79.34
2022-09-05T06:24:21.278Z,79.04
2022-09-05T06:25:19.167Z,78.84
2022-09-05T06:26:19.465Z,78.84
2022-09-05T06:27:19.158Z,78.74
2022-09-05T06:28:20.212Z,78.59
2022-09-05T06:29:19.398Z,78.50
2022-09-05T06:30:19.037Z,78.59
2022-09-05T06:31:31.334Z,78.19
2022-09-05T06:32:20.139Z,78.50
2022-09-05T06:33:19.152Z,78.59
2022-09-05T06:34:35.184Z,78.70
2022-09-05T06:35:20.060Z,78.50
2022-09-05T06:36:18.994Z,78.30
2022-09-05T06:37:19.133Z,78.46
2022-09-05T06:38:18.831Z,78.46
2022-09-05T06:39:18.865Z,78.26
2022-09-05T06:40:18.841Z,78.26
2022-09-05T06:41:18.832Z,78.06
2022-09-05T06:42:42.217Z,78.16
2022-09-05T06:43:19.901Z,77.66
2022-09-05T06:44:19.229Z,77.55
2022-09-05T06:45:27.822Z,77.55
2022-09-05T06:46:52.961Z,77.72
2022-09-05T06:47:33.337Z,77.92
2022-09-05T06:48:23.900Z,78.02
2022-09-05T06:49:28.501Z,78.02
2022-09-05T06:50:24.624Z,78.02
2022-09-05T06:51:19.913Z,77.62
2022-09-05T06:52:29.493Z,77.62
2022-09-05T06:53:21.042Z,77.62
2022-09-05T06:54:18.638Z,77.48
2022-09-05T06:55:19.097Z,77.38
2022-09-05T06:56:25.392Z,77.48
2022-09-05T06:57:19.940Z,76.97
2022-09-05T06:58:18.643Z,76.87
2022-09-05T06:59:18.597Z,76.97
2022-09-05T07:00:22.690Z,76.97
2022-09-05T07:01:18.770Z,76.97
2022-09-05T07:02:25.720Z,77.04
2022-09-05T07:03:19.910Z,76.94
2022-09-05T07:05:00.874Z,76.54
2022-09-05T07:05:37.217Z,76.54
2022-09-05T07:06:20.258Z,76.54
2022-09-05T07:07:18.480Z,76.30
2022-09-05T07:08:36.419Z,76.40
2022-09-05T07:09:19.498Z,76.10
2022-09-05T07:10:37.448Z,75.99
2022-09-05T07:11:19.552Z,75.90
2022-09-05T07:12:18.596Z,75.90
2022-09-05T07:13:18.501Z,76.10
2022-09-05T07:14:18.374Z,75.96
2022-09-05T07:15:18.580Z,75.76
2022-09-05T07:16:26.574Z,75.46
2022-09-05T07:17:19.706Z,75.46
2022-09-05T07:18:18.313Z,75.12
2022-09-05T07:19:19.291Z,75.02
2022-09-05T07:20:18.381Z,74.72
2022-09-05T07:21:26.672Z,74.62
2022-09-05T07:22:46.721Z,74.72
2022-09-05T07:24:06.332Z,74.62
2022-09-05T07:24:53.263Z,74.52
2022-09-05T07:25:19.363Z,74.41
2022-09-05T07:26:37.986Z,74.52
2022-09-05T07:27:19.165Z,74.82
2022-09-05T07:28:23.580Z,74.92
2022-09-05T07:29:19.418Z,74.48
2022-09-05T07:30:18.253Z,74.48
2022-09-05T07:31:37.251Z,74.68
2022-09-05T07:32:23.734Z,74.68
2022-09-05T07:33:19.319Z,74.88
2022-09-05T07:34:20.828Z,74.35
2022-09-05T07:35:18.230Z,73.44
2022-09-05T07:36:18.167Z,73.04
2022-09-05T07:37:18.102Z,72.90
2022-09-05T07:38:18.242Z,72.90
2022-09-05T07:39:28.660Z,72.60
2022-09-05T07:40:25.943Z,72.06
2022-09-05T07:41:19.303Z,71.86
2022-09-05T07:42:18.398Z,71.77
2022-09-05T07:43:19.057Z,71.77
2022-09-05T07:44:18.280Z,71.77
2022-09-05T07:45:21.095Z,71.23
2022-09-05T07:46:18.034Z,70.93
2022-09-05T07:47:18.091Z,70.93
2022-09-05T07:48:18.095Z,70.63
2022-09-05T07:49:17.921Z,70.09
2022-09-05T07:54:15.102Z,69.99
2022-09-05T07:56:46.042Z,70.19
2022-09-05T07:56:51.097Z,70.39
2022-09-05T07:56:52.223Z,70.26
2022-09-05T07:56:54.862Z,70.29
2022-09-05T07:56:59.806Z,70.19
2022-09-05T07:56:59.941Z,70.29
2022-09-05T07:57:31.299Z,70.26
2022-09-05T07:58:19.026Z,70.06
2022-09-05T07:59:17.847Z,69.66
2022-09-05T08:00:26.010Z,69.42
2022-09-05T08:01:18.780Z,69.12
2022-09-05T08:02:17.684Z,69.12
2022-09-05T08:03:17.753Z,68.92
2022-09-05T08:04:17.877Z,69.12
2022-09-05T08:05:27.836Z,69.32
2022-09-05T08:07:28.940Z,69.09
2022-09-05T08:07:49.636Z,69.29
2022-09-05T08:08:19.039Z,69.39
2022-09-05T08:10:09.003Z,69.09
2022-09-05T08:10:18.763Z,69.09
2022-09-05T08:11:23.672Z,69.09
2022-09-05T08:12:27.771Z,69.09
2022-09-05T08:13:24.379Z,68.89
2022-09-05T08:14:40.425Z,68.89
2022-09-05T08:15:19.129Z,68.89
2022-09-05T08:16:17.732Z,68.69
2022-09-05T08:17:17.642Z,68.59
2022-09-05T08:18:18.054Z,68.46
2022-09-05T08:19:18.390Z,68.46
2022-09-05T08:20:17.732Z,68.55
2022-09-05T08:21:17.502Z,68.46
2022-09-05T08:22:18.505Z,68.02
2022-09-05T08:23:17.558Z,67.82
2022-09-05T08:24:17.565Z,67.63
2022-09-05T08:25:17.683Z,67.40
2022-09-05T08:26:17.533Z,67.19
2022-09-05T08:27:17.511Z,66.76
2022-09-05T08:28:17.551Z,65.93
2022-09-05T08:29:24.923Z,64.44
2022-09-05T08:30:26.751Z,62.68
2022-09-05T08:31:18.637Z,61.99
2022-09-05T08:32:17.507Z,61.25
2022-09-05T08:33:17.778Z,61.19
2022-09-05T08:34:17.483Z,61.09
2022-09-05T08:35:19.337Z,61.39
2022-09-05T08:36:17.259Z,60.86
2022-09-05T08:37:20.863Z,60.33
2022-09-05T08:38:19.958Z,60.33
2022-09-05T08:39:17.971Z,60.03
2022-09-05T08:40:17.716Z,59.77
2022-09-05T08:41:18.499Z,59.56
2022-09-05T08:42:27.016Z,59.69
2022-09-05T08:46:36.134Z,60.39
2022-09-05T08:46:40.510Z,60.69
2022-09-05T08:46:47.395Z,60.79
2022-09-05T08:46:47.821Z,60.69
2022-09-05T08:47:18.882Z,60.29
2022-09-05T08:48:17.272Z,60.49
2022-09-05T08:49:24.408Z,60.59
2022-09-05T08:50:18.660Z,60.49
2022-09-05T08:51:17.382Z,60.29
2022-09-05T08:52:17.534Z,60.39
2022-09-05T08:53:36.427Z,60.29
2022-09-05T08:54:18.872Z,59.56
2022-09-05T08:55:17.078Z,59.64
2022-09-05T08:56:20.749Z,59.14
2022-09-05T08:57:17.116Z,58.94
2022-09-05T08:58:18.275Z,58.74
2022-09-05T08:59:32.110Z,58.94
2022-09-05T09:00:20.747Z,58.64
2022-09-05T09:01:18.037Z,58.31
2022-09-05T09:02:46.690Z,57.62
2022-09-05T09:03:18.009Z,57.71
2022-09-05T09:04:16.877Z,57.19
2022-09-05T09:05:17.945Z,56.99
2022-09-05T09:06:29.172Z,56.79
2022-09-05T09:07:47.746Z,56.70
2022-09-05T09:08:17.852Z,56.70
2022-09-05T09:09:16.796Z,56.59
2022-09-05T09:10:25.655Z,57.09
2022-09-05T09:11:20.677Z,56.99
2022-09-05T09:12:18.163Z,57.29
2022-09-05T09:13:16.904Z,57.39
2022-09-05T09:14:31.050Z,56.77
2022-09-05T09:15:30.060Z,56.57
2022-09-05T09:16:26.039Z,56.96
2022-09-05T09:17:18.044Z,57.06
2022-09-05T09:18:18.937Z,56.47
2022-09-05T09:19:29.095Z,55.87
2022-09-05T09:20:27.039Z,56.34
2022-09-05T09:21:21.926Z,55.85
2022-09-05T09:22:26.658Z,55.15
2022-09-05T09:23:32.389Z,55.02
2022-09-05T09:24:20.149Z,54.72
2022-09-05T09:25:26.461Z,55.22
2022-09-05T09:26:24.653Z,54.95
2022-09-05T09:27:31.349Z,55.25
2022-09-05T09:28:48.274Z,55.25
2022-09-05T09:29:21.747Z,54.16
2022-09-05T09:30:20.150Z,54.93
2022-09-05T09:31:17.679Z,54.72
2022-09-05T09:32:19.624Z,54.93
2022-09-05T09:33:36.227Z,54.72
2022-09-05T09:34:19.506Z,55.22
2022-09-05T09:35:17.605Z,54.63
2022-09-05T09:36:21.812Z,55.02
2022-09-05T09:37:40.289Z,54.72
2022-09-05T09:38:18.525Z,54.72
2022-09-05T09:39:25.985Z,54.13
2022-09-05T09:40:17.443Z,53.73
2022-09-05T09:41:16.392Z,54.03
2022-09-05T09:42:32.639Z,53.63
2022-09-05T09:43:26.525Z,52.64
2022-09-05T09:44:20.613Z,52.61
2022-09-05T09:45:28.685Z,53.21
2022-09-05T09:46:28.495Z,51.82
2022-09-05T09:47:17.407Z,52.31
2022-09-05T09:48:16.398Z,52.49
2022-09-05T09:49:22.560Z,52.00
2022-09-05T09:50:21.908Z,51.89
2022-09-05T09:51:18.876Z,51.40
2022-09-05T09:52:20.859Z,51.57
2022-09-05T09:53:27.671Z,52.26
2022-09-05T09:54:24.998Z,52.07
2022-09-05T09:55:28.536Z,51.70
2022-09-05T09:56:26.228Z,51.60
2022-09-05T09:57:27.820Z,52.00
2022-09-05T09:58:26.171Z,52.19
2022-09-05T09:59:23.686Z,52.00
2022-09-05T10:00:27.760Z,51.70
2022-09-05T10:01:44.951Z,52.17
2022-09-05T10:06:49.544Z,51.57
2022-09-05T10:10:33.716Z,50.98
2022-09-05T10:10:39.611Z,50.88
2022-09-05T10:10:40.396Z,51.07
2022-09-05T10:10:43.853Z,50.78
2022-09-05T10:10:44.577Z,50.68
2022-09-05T10:10:51.119Z,50.58
2022-09-05T10:10:53.557Z,50.88
2022-09-05T10:11:07.143Z,50.98
2022-09-05T10:12:23.046Z,50.98
2022-09-05T10:13:20.457Z,50.48
2022-09-05T10:14:26.239Z,50.98
2022-09-05T10:15:30.445Z,51.07
2022-09-05T10:16:27.777Z,50.85
2022-09-05T10:17:31.022Z,50.46
2022-09-05T10:18:32.511Z,50.16
2022-09-05T10:20:08.169Z,50.26
2022-09-05T10:20:49.697Z,50.26
2022-09-05T10:21:26.728Z,50.16
2022-09-05T10:22:38.809Z,50.53
2022-09-05T10:23:27.221Z,50.53
2022-09-05T10:24:25.604Z,50.43
2022-09-05T10:25:19.041Z,50.23
2022-09-05T10:26:17.074Z,50.04
2022-09-05T10:27:22.038Z,50.13
2022-09-05T10:28:24.658Z,49.94
2022-09-05T10:29:34.971Z,49.05
2022-09-05T10:30:28.001Z,49.74
2022-09-05T10:33:43.953Z,49.64
2022-09-05T10:35:07.861Z,49.71
2022-09-05T10:35:13.893Z,48.82
2022-09-05T10:35:14.235Z,49.12
2022-09-05T10:35:22.255Z,48.63
2022-09-05T10:36:24.307Z,48.82
2022-09-05T10:37:31.119Z,48.92
2022-09-05T10:38:24.038Z,48.82
2022-09-05T10:39:25.204Z,48.43
2022-09-05T10:40:17.705Z,48.63
2022-09-05T10:41:46.502Z,48.72
2022-09-05T10:42:41.233Z,48.63
2022-09-05T10:43:22.036Z,47.24
2022-09-05T10:44:18.631Z,47.61
2022-09-05T10:45:30.231Z,47.22
2022-09-05T10:46:46.600Z,47.02
2022-09-05T10:47:19.057Z,46.40
2022-09-05T10:48:19.483Z,46.20
2022-09-05T10:49:23.029Z,46.72
2022-09-05T10:50:23.091Z,46.62
2022-09-05T10:51:32.055Z,46.92
2022-09-05T10:52:23.638Z,46.82
2022-09-05T10:53:19.960Z,47.00
2022-09-05T10:54:21.830Z,46.70
2022-09-05T10:55:20.165Z,46.01
2022-09-05T10:56:30.675Z,45.71
2022-09-05T11:01:49.968Z,44.23
2022-09-05T11:02:23.327Z,42.92
2022-09-05T11:02:24.966Z,42.72
2022-09-05T11:02:29.326Z,42.92
2022-09-05T11:03:01.469Z,43.31
2022-09-05T11:03:59.073Z,42.72
2022-09-05T11:05:12.378Z,42.52
2022-09-05T11:05:49.079Z,42.40
2022-09-05T11:06:49.225Z,43.10
2022-09-05T11:07:49.949Z,42.80
2022-09-05T11:09:04.034Z,42.43
2022-09-05T11:09:57.185Z,43.10
2022-09-05T11:10:58.166Z,42.99
2022-09-05T11:11:56.267Z,42.70
2022-09-05T11:12:57.658Z,42.21
2022-09-05T11:13:54.389Z,42.70
2022-09-05T11:14:52.368Z,42.60
2022-09-05T11:16:04.531Z,42.99
2022-09-05T11:16:55.547Z,42.38
2022-09-05T11:18:16.328Z,41.41
2022-09-05T11:18:57.107Z,41.31
2022-09-05T11:21:04.165Z,42.50
2022-09-05T11:22:24.480Z,42.11
2022-09-05T11:23:11.522Z,41.52
2022-09-05T11:24:24.126Z,41.52
2022-09-05T11:25:15.164Z,40.62
2022-09-05T11:26:12.280Z,39.81
2022-09-05T11:27:08.522Z,39.04
2022-09-05T11:28:11.203Z,39.93
2022-09-05T11:29:21.533Z,38.94
2022-09-05T11:30:28.418Z,38.55
2022-09-05T11:31:19.193Z,39.04
2022-09-05T11:36:25.952Z,39.64
2022-09-05T11:39:47.316Z,36.25
2022-09-05T11:39:53.893Z,35.47
2022-09-05T11:39:56.263Z,35.96
2022-09-05T11:39:58.953Z,36.27
2022-09-05T11:40:07.048Z,35.55
2022-09-05T11:40:28.844Z,35.25
2022-09-05T11:40:41.869Z,35.93
2022-09-05T11:41:39.198Z,35.52
2022-09-05T11:42:29.499Z,35.79
2022-09-05T11:43:28.666Z,35.89
2022-09-05T11:44:35.000Z,36.29
2022-09-05T11:45:28.924Z,36.80
2022-09-05T11:46:29.802Z,36.21
2022-09-05T11:47:36.138Z,36.50
2022-09-05T11:48:29.209Z,36.11
2022-09-05T11:49:33.286Z,35.40
2022-09-05T11:50:33.028Z,35.22
2022-09-05T11:51:33.888Z,35.41
2022-09-05T11:52:33.662Z,35.93
2022-09-05T11:53:38.549Z,36.61
2022-09-05T11:54:33.908Z,36.61
2022-09-05T11:55:34.095Z,36.90
2022-09-05T11:56:45.777Z,36.70
2022-09-05T11:57:41.509Z,37.09
2022-09-05T11:58:45.120Z,36.80
2022-09-05T11:59:34.182Z,36.60
2022-09-05T12:00:41.149Z,36.90
2022-09-05T12:01:43.160Z,36.32
2022-09-05T12:02:34.615Z,36.22
2022-09-05T12:03:57.197Z,35.83
2022-09-05T12:04:31.554Z,35.93
2022-09-05T12:06:05.080Z,36.02
2022-09-05T12:07:00.672Z,35.24
2022-09-05T12:07:59.017Z,35.33
2022-09-05T12:09:00.807Z,35.53
2022-09-05T12:09:58.571Z,36.02
2022-09-05T12:10:48.224Z,36.12
2022-09-05T12:11:37.732Z,36.61
2022-09-05T12:12:39.018Z,36.52
2022-09-05T12:13:42.319Z,37.01
2022-09-05T12:17:10.013Z,36.82
2022-09-05T12:21:44.425Z,37.80
2022-09-05T12:22:26.057Z,37.03
2022-09-05T12:23:24.875Z,37.05
2022-09-05T12:25:15.127Z,37.34
2022-09-05T12:25:26.278Z,37.45
2022-09-05T12:27:39.892Z,37.82
2022-09-05T12:27:41.162Z,37.62
2022-09-05T12:29:27.109Z,37.62
2022-09-05T12:29:33.926Z,37.30
2022-09-05T12:30:10.146Z,36.02
2022-09-05T12:31:46.642Z,36.22
2022-09-05T12:33:52.096Z,36.32
2022-09-05T12:36:02.109Z,36.42
2022-09-05T12:36:10.928Z,36.71
2022-09-05T12:36:11.893Z,36.71
2022-09-05T12:40:00.919Z,36.52
2022-09-05T12:40:28.719Z,36.60
2022-09-05T12:40:57.037Z,36.30
2022-09-05T12:41:46.169Z,35.68
2022-09-05T12:42:20.739Z,36.17
2022-09-05T12:44:06.050Z,35.77
2022-09-05T12:44:42.032Z,35.58
2022-09-05T12:45:20.149Z,35.30
2022-09-05T12:46:24.179Z,35.79
2022-09-05T12:47:19.256Z,35.69
2022-09-05T12:48:07.069Z,35.79
2022-09-05T12:49:21.104Z,35.89
2022-09-05T12:53:24.885Z,36.58
2022-09-05T12:54:24.816Z,35.99
2022-09-05T12:55:27.750Z,36.29
2022-09-05T12:57:58.985Z,36.19
2022-09-05T12:59:46.808Z,36.38
2022-09-05T13:02:57.257Z,36.19
2022-09-05T13:03:01.186Z,36.19
2022-09-05T13:03:09.723Z,36.48
2022-09-05T13:03:11.189Z,36.29
2022-09-05T13:03:11.419Z,36.78
2022-09-05T13:04:16.798Z,36.68
2022-09-05T13:06:03.559Z,36.78
2022-09-05T13:06:49.938Z,36.48
2022-09-05T13:07:47.843Z,36.57
2022-09-05T13:08:59.649Z,36.86
2022-09-05T13:11:48.494Z,36.66